Valley Peak, Santa Cruz Island Reserve, California Weather observations

Data are for 10 minute period ending at time listed.
 Day   Time   Solar   Ave.   Ave.  Ave.  Vector  Max.   Baro.   Total    
  of    of     Rad.   Air    Rel.  Wind   Wind   Wind  Press.  Precip.   
Year   Day            Temp.  Hum.  Speed  Dir.   Gust                    
2014   (PST)  Kw/m2    F      %     mph   deg.    mph    mb.     in.     
-------------------------------------------------------------------------
 209    8:20   0.21   71.2    63    1.5   132     4.7   969.0    0.00 
 209    8:30   0.23   70.8    66    2.3   146     5.5   969.0    0.00 
 209    8:40   0.26   70.3    68    2.5   140     4.3   969.0    0.00 
 209    8:50   0.31   70.8    68    1.0    60     2.8   968.9    0.00 
 209    9:00   0.54   72.2    65    1.2   161     3.1   969.0    0.00 
 209    9:10   0.76   74.3    61    2.1   170     5.0   969.0    0.00 
 209    9:20   0.81   77.2    57    1.9   118     4.2   968.9    0.00 
 209    9:30   0.80   78.1    59    2.3    57     5.0   969.0    0.00 
 209    9:40   0.71   79.1    57    2.0    60     3.8   969.1    0.00 
 209    9:50   0.75   78.8    58    4.0    55     7.3   969.1    0.00 
 209   10:00   0.73   77.1    61    2.0    40     4.2   969.2    0.00 
 209   10:10   0.72   78.1    59    2.3    81     5.4   969.3    0.00 
 209   10:20   0.61   77.1    61    3.1    51     5.8   969.3    0.00 
 209   10:30   0.61   75.3    64    3.5    45     5.4   969.2    0.00 
 209   10:40   0.86   75.1    65    4.0    57     6.3   969.3    0.00 
 209   10:50   0.97   78.6    54    1.6    47     4.2   969.3    0.00 
 209   11:00   0.72   81.5    48    1.2    92     3.9   969.5    0.00 
 209   11:10   0.99   82.7    50    2.4    75     5.0   969.5    0.00 
 209   11:20   1.01   84.2    47    2.8    59     5.3   969.5    0.00 
 209   11:30   0.91   84.8    47    2.5    54     4.9   969.6    0.00 
 209   11:40   0.93   82.8    51    3.1    29     5.3   969.5    0.00 
 209   11:50   0.99   79.0    55    4.0    31     6.0   969.5    0.00 
 209   12:00   0.95   81.5    50    4.5    45     6.4   969.4    0.00 
 209   12:10   0.72   82.3    48    3.1    60     5.0   969.4    0.00 
 209   12:20   0.89   83.8    47    3.4    57     5.3   969.4    0.00 
 209   12:30   0.98   83.4    48    2.4    50     4.7   969.3    0.00 
 209   12:40   0.98   82.9    49    2.9    28     5.0   969.2    0.00 
 209   12:50   0.98   82.2    48    3.2    39     5.8   969.2    0.00 
 209   13:00   0.97   84.4    43    2.8    63     4.5   969.1    0.00 
 209   13:10   0.92   87.9    41    3.5   131     7.6   969.1    0.00 
 209   13:20   0.88   84.0    48    4.3   145     8.0   969.1    0.00 
 209   13:30   0.91   81.0    51    3.8   148     7.4   969.0    0.00 
 209   13:40   0.90   82.9    48    4.0   152     8.0   968.9    0.00 
 209   13:50   0.86   82.7    49    4.2   151     8.6   968.9    0.00 
 209   14:00   0.78   81.4    51    3.8   147     7.8   968.8    0.00 
 209   14:10   0.66   79.8    55    5.2   142     7.9   968.8    0.00 
 209   14:20   0.86   79.7    56    4.3   131     7.4   968.6    0.00 
 209   14:30   0.80   80.2    55    4.0   138     8.4   968.5    0.00 
 209   14:40   0.35   77.7    59    4.7   151     9.1   968.4    0.00 
 209   14:50   0.39   74.8    64    4.1   156     7.5   968.2    0.00 
 209   15:00   0.22   73.3    67    3.8   170     5.8   968.0    0.00 
 209   15:10   0.24   72.5    68    3.5   178     5.6   967.9    0.00 
 209   15:20   0.61   74.8    64    4.0   203     5.8   967.7    0.00 
 209   15:30   0.70   78.2    58    3.6   204     6.6   967.7    0.00 
 209   15:40   0.48   79.2    57    2.5   196     6.1   967.8    0.00 
 209   15:50   0.41   79.4    57    2.1    18     7.1   967.8    0.00 
 209   16:00   0.33   75.6    64    4.8    16     7.4   967.7    0.00 
 209   16:10   0.23   73.2    67    4.1    13     6.0   967.6    0.00 
 209   16:20   0.29   73.5    67    1.1     9     3.7   967.4    0.00 
 209   16:30   0.37   77.8    59    2.9    48     5.5   967.3    0.00 
 209   16:40   0.20   75.1    63    4.2    27     5.8   967.2    0.00 
 209   16:50   0.23   70.8    71    3.4   356     5.5   967.0    0.00 
 209   17:00   0.29   71.7    67    3.8   358     5.8   966.9    0.00 
 209   17:10   0.29   71.3    70    5.6     1     9.0   966.9    0.00 
 209   17:20   0.29   72.2    62    7.8   358    10.2   966.9    0.00 
 209   17:30   0.24   73.7    58    3.4    29     6.9   966.9    0.00 
 209   17:40   0.24   78.3    53    3.6   200     5.7   966.9    0.00 
 209   17:50   0.19   77.4    56    3.7   200     5.9   967.0    0.00 
 209   18:00   0.14   76.3    58    3.1   214     5.3   967.1    0.00 
 209   18:10   0.10   76.3    55    3.4   268     5.6   967.1    0.00 
 209   18:20   0.08   72.9    67    3.1   340     6.1   967.1    0.00 
 209   18:30   0.05   66.2    81    4.9   318     8.6   967.0    0.00 
 209   18:40   0.03   69.3    59    6.5   290     9.2   966.8    0.00 
 209   18:50   0.01   71.1    52    6.0   296     8.6   966.8    0.00 
 209   19:00   0.00   71.4    52    5.5   324     6.6   966.9    0.00 
 209   19:10   0.00   71.1    51    7.2   288     9.2   966.9    0.00 
 209   19:20   0.00   72.3    37    5.7   286     8.3   967.0    0.00 
 209   19:30   0.00   74.0    35    6.0   312     8.4   967.2    0.00 
 209   19:40   0.00   74.3    35    5.3   308     7.2   967.3    0.00 
 209   19:50   0.00   73.9    33    4.1   270     6.9   967.4    0.00 
 209   20:00   0.00   74.2    26    5.4   273     9.7   967.5    0.00 
 209   20:10   0.00   74.6    22    7.7   266     9.5   967.6    0.00 
 209   20:20   0.00   74.4    21    7.1   286     9.3   967.6    0.00 
 209   20:30   0.00   72.8    35    6.4   322     8.8   967.7    0.00 
 209   20:40   0.00   73.7    32    6.8   339    11.0   967.6    0.00 
 209   20:50   0.00   73.1    33   10.3   344    14.3   967.6    0.00 
 209   21:00   0.00   73.6    29   10.6   335    15.8   967.7    0.00 
 209   21:10   0.00   76.7    22    8.3   315    12.3   967.7    0.00 
 209   21:20   0.00   75.8    24    6.5   325     8.8   967.8    0.00 
 209   21:30   0.00   75.3    26    5.7   334     7.3   967.8    0.00 
 209   21:40   0.00   72.1    32    8.0     4    10.2   967.6    0.00 
 209   21:50   0.00   70.4    34    6.9   360     9.9   967.5    0.00 
 209   22:00   0.00   71.5    32    4.9   334     8.5   967.5    0.00 
 209   22:10   0.00   73.1    30    6.8   333    11.9   967.5    0.00 
 209   22:20   0.00   74.7    27    9.7   330    13.9   967.4    0.00 
 209   22:30   0.00   76.8    25    6.0   320    12.6   967.4    0.00 
 209   22:40   0.00   76.9    26    7.0   312    10.7   967.3    0.00 
 209   22:50   0.00   76.7    26    6.9   335    10.4   967.2    0.00 
 209   23:00   0.00   76.9    26    5.4   326     9.3   967.2    0.00 
 209   23:10   0.00   77.3    24    5.0   334     8.9   967.2    0.00 
 209   23:20   0.00   75.1    23    5.6   359     8.5   967.2    0.00 
 209   23:30   0.00   73.0    24    7.4   356     9.3   967.1    0.00 
 209   23:40   0.00   74.6    25    8.0   335     9.9   967.1    0.00 
 209   23:50   0.00   77.1    27    4.7   323     7.2   967.2    0.00 
 210    0:00   0.00   76.7    26    3.1   227     4.2   967.2    0.00 
 210    0:10   0.00   75.7    26    4.2   202     5.6   967.2    0.00 
 210    0:20   0.00   74.5    28    4.9   224     6.5   967.1    0.00 
 210    0:30   0.00   74.6    27    4.5   261     6.0   967.2    0.00 
 210    0:40   0.00   76.0    28    5.0   306     6.6   967.1    0.00 
 210    0:50   0.00   78.1    30    5.5   325     9.0   967.1    0.00 
 210    1:00   0.00   75.5    28    6.7     3     9.2   967.0    0.00 
 210    1:10   0.00   72.5    27    9.2     7    12.6   966.8    0.00 
 210    1:20   0.00   75.2    24    8.1   326    11.8   966.9    0.00 
 210    1:30   0.00   77.2    27    6.1   289    10.8   966.9    0.00 
 210    1:40   0.00   76.1    27    3.5   190     5.4   966.8    0.00 
 210    1:50   0.00   74.5    29    6.0   169     8.0   966.9    0.00 
 210    2:00   0.00   71.6    33    7.4   152     8.1   967.0    0.00 
 210    2:10   0.00   70.1    40    7.8   169     9.3   967.0    0.00 
 210    2:20   0.00   70.0    37    6.4   210     7.4   966.9    0.00 
 210    2:30   0.00   69.2    42    7.0   204     9.3   967.0    0.00 
 210    2:40   0.00   70.0    36    6.7   213     9.1   966.9    0.00 
 210    2:50   0.00   68.5    47    8.7   201    10.4   967.0    0.00 
 210    3:00   0.00   68.0    49    8.0   206    10.1   966.8    0.00 
 210    3:10   0.00   66.3    61    9.0   197    11.1   966.8    0.00 
 210    3:20   0.00   65.6    65    9.5   195    10.5   966.8    0.00 
 210    3:30   0.00   65.7    60    9.0   216    10.8   966.9    0.00 
 210    3:40   0.00   66.4    55    9.2   246    11.7   966.9    0.00 
 210    3:50   0.00   67.8    43    9.2   268    11.5   966.9    0.00 
 210    4:00   0.00   70.4    33    6.7   308     9.0   966.9    0.00 
 210    4:10   0.00   72.7    32    9.2   359    12.3   966.9    0.00 
 210    4:20   0.00   67.9    49   10.4    16    12.7   967.0    0.00 
 210    4:30   0.00   67.1    50   10.4    10    11.7   967.0    0.00 
 210    4:40   0.00   68.9    44    9.1     9    11.0   967.1    0.00 
 210    4:50   0.00   70.5    38    6.9   353     8.6   967.2    0.00 
 210    5:00   0.00   70.6    37    6.0     2     7.6   967.2    0.00 
 210    5:10   0.00   70.3    37    6.2     8     8.3   967.3    0.00 
 210    5:20   0.01   70.1    36    5.6    36     7.2   967.5    0.00 
 210    5:30   0.03   70.1    36    4.3    32     5.1   967.5    0.00 
 210    5:40   0.05   69.3    50    3.0   104     4.2   967.6    0.00 
 210    5:50   0.07   66.7    63    2.4   158     3.6   967.7    0.00 
 210    6:00   0.10   67.2    50    1.9   151     3.3   967.8    0.00 
 210    6:10   0.13   68.2    54    3.0   188     3.7   967.8    0.00 
 210    6:20   0.10   68.3    51    5.0   171     6.3   967.8    0.00 
 210    6:30   0.16   69.0    47    4.6   171     5.6   967.9    0.00 
 210    6:40   0.24   70.4    44    3.8   162     4.8   967.9    0.00 
 210    6:50   0.21   71.9    40    2.2   121     3.7   968.0    0.00 
 210    7:00   0.20   72.1    47    3.2   170     4.5   968.1    0.00 
 210    7:10   0.32   69.4    57    3.7   194     4.2   968.0    0.00 
 210    7:20   0.36   69.1    62    3.6   176     4.8   968.2    0.00 
 210    7:30   0.40   70.2    56    3.6   148     7.9   968.3    0.00 
 210    7:40   0.42   72.3    52    4.6   135     8.3   968.3    0.00 
 210    7:50   0.47   73.0    55    4.4   158     8.2   968.2    0.00 
 210    8:00   0.49   72.3    53    4.8   161     9.3   968.1    0.00 
 210    8:10   0.52   73.4    52    5.8   150     8.8   968.1    0.00 

Return to Valley Peak, Santa Cruz Island Reserve graphs page.


Western Regional Climate Center,wrcc@dri.edu